sensor_id;sensor_type;location;lat;lon;timestamp;pressure;altitude;pressure_sealevel;temperature;humidity
64095;BME280;50353;51.420;5.682;2024-01-07T00:01:11;101428.09;;;2.73;100.00
64095;BME280;50353;51.420;5.682;2024-01-07T00:03:40;101423.78;;;2.72;100.00
64095;BME280;50353;51.420;5.682;2024-01-07T00:06:06;101432.41;;;2.75;100.00
64095;BME280;50353;51.420;5.682;2024-01-07T00:08:31;101432.44;;;2.74;100.00
64095;BME280;50353;51.420;5.682;2024-01-07T00:10:57;101432.50;;;2.70;100.00
64095;BME280;50353;51.420;5.682;2024-01-07T00:13:22;101436.59;;;2.85;100.00
64095;BME280;50353;51.420;5.682;2024-01-07T00:15:47;101432.50;;;2.70;100.00
64095;BME280;50353;51.420;5.682;2024-01-07T00:18:13;101433.16;;;2.82;100.00
64095;BME280;50353;51.420;5.682;2024-01-07T00:20:38;101440.84;;;2.90;100.00
64095;BME280;50353;51.420;5.682;2024-01-07T00:23:03;101436.63;;;2.84;100.00
64095;BME280;50353;51.420;5.682;2024-01-07T00:25:32;101440.22;;;2.75;100.00
64095;BME280;50353;51.420;5.682;2024-01-07T00:27:57;101432.59;;;2.64;100.00
64095;BME280;50353;51.420;5.682;2024-01-07T00:30:22;101445.47;;;2.75;100.00
64095;BME280;50353;51.420;5.682;2024-01-07T00:32:48;101438.19;;;2.93;100.00
64095;BME280;50353;51.420;5.682;2024-01-07T00:35:16;101445.09;;;2.95;100.00
64095;BME280;50353;51.420;5.682;2024-01-07T00:37:41;101441.72;;;2.90;100.00
64095;BME280;50353;51.420;5.682;2024-01-07T00:40:07;101449.44;;;2.96;100.00
64095;BME280;50353;51.420;5.682;2024-01-07T00:42:33;101430.69;;;2.73;100.00
64095;BME280;50353;51.420;5.682;2024-01-07T00:44:58;101453.00;;;2.92;100.00
64095;BME280;50353;51.420;5.682;2024-01-07T00:47:23;101452.13;;;2.93;100.00
64095;BME280;50353;51.420;5.682;2024-01-07T00:49:49;101446.16;;;2.86;100.00
64095;BME280;50353;51.420;5.682;2024-01-07T00:52:14;101459.06;;;2.93;100.00
64095;BME280;50353;51.420;5.682;2024-01-07T00:54:39;101452.13;;;2.93;100.00
64095;BME280;50353;51.420;5.682;2024-01-07T00:57:05;101464.41;;;2.85;100.00
64095;BME280;50353;51.420;5.682;2024-01-07T00:59:30;101475.72;;;2.87;100.00
64095;BME280;50353;51.420;5.682;2024-01-07T01:01:57;101469.63;;;2.85;100.00
64095;BME280;50353;51.420;5.682;2024-01-07T01:04:22;101481.00;;;2.84;100.00
64095;BME280;50353;51.420;5.682;2024-01-07T01:06:47;101476.00;;;2.72;100.00
64095;BME280;50353;51.420;5.682;2024-01-07T01:09:13;101475.75;;;2.85;100.00
64095;BME280;50353;51.420;5.682;2024-01-07T01:11:38;101473.81;;;2.95;100.00
64095;BME280;50353;51.420;5.682;2024-01-07T01:14:03;101477.47;;;2.86;100.00
64095;BME280;50353;51.420;5.682;2024-01-07T01:16:29;101482.50;;;2.96;100.00
64095;BME280;50353;51.420;5.682;2024-01-07T01:18:54;101488.69;;;2.93;100.00
64095;BME280;50353;51.420;5.682;2024-01-07T01:21:20;101479.50;;;2.69;100.00
64095;BME280;50353;51.420;5.682;2024-01-07T01:23:46;101483.84;;;2.68;100.00
64095;BME280;50353;51.420;5.682;2024-01-07T01:26:12;101491.72;;;2.67;100.00
64095;BME280;50353;51.420;5.682;2024-01-07T01:28:37;101498.56;;;2.74;100.00
64095;BME280;50353;51.420;5.682;2024-01-07T01:31:02;101496.03;;;2.69;100.00
64095;BME280;50353;51.420;5.682;2024-01-07T01:33:28;101508.31;;;2.63;100.00
64095;BME280;50353;51.420;5.682;2024-01-07T01:35:53;101505.59;;;2.70;100.00
64095;BME280;50353;51.420;5.682;2024-01-07T01:38:18;101512.59;;;2.67;100.00
64095;BME280;50353;51.420;5.682;2024-01-07T01:40:44;101513.56;;;2.61;100.00
64095;BME280;50353;51.420;5.682;2024-01-07T01:43:09;101523.78;;;2.75;100.00
64095;BME280;50353;51.420;5.682;2024-01-07T01:45:34;101520.41;;;2.68;100.00
64095;BME280;50353;51.420;5.682;2024-01-07T01:48:00;101522.88;;;2.78;100.00
64095;BME280;50353;51.420;5.682;2024-01-07T01:50:26;101523.03;;;2.67;100.00
64095;BME280;50353;51.420;5.682;2024-01-07T01:52:51;101523.88;;;2.69;100.00
64095;BME280;50353;51.420;5.682;2024-01-07T01:55:18;101529.13;;;2.67;100.00
64095;BME280;50353;51.420;5.682;2024-01-07T01:57:46;101528.59;;;2.45;100.00
64095;BME280;50353;51.420;5.682;2024-01-07T02:00:12;101536.31;;;2.53;100.00
64095;BME280;50353;51.420;5.682;2024-01-07T02:02:39;101531.97;;;2.52;100.00
64095;BME280;50353;51.420;5.682;2024-01-07T02:05:04;101544.88;;;2.61;100.00
64095;BME280;50353;51.420;5.682;2024-01-07T02:07:30;101535.44;;;2.54;100.00
64095;BME280;50353;51.420;5.682;2024-01-07T02:09:56;101528.59;;;2.47;100.00
64095;BME280;50353;51.420;5.682;2024-01-07T02:12:21;101542.53;;;2.46;100.00
64095;BME280;50353;51.420;5.682;2024-01-07T02:14:47;101543.31;;;2.49;100.00
64095;BME280;50353;51.420;5.682;2024-01-07T02:17:12;101546.63;;;2.62;100.00
64095;BME280;50353;51.420;5.682;2024-01-07T02:19:38;101541.56;;;2.51;100.00
64095;BME280;50353;51.420;5.682;2024-01-07T02:22:04;101541.44;;;2.58;100.00
64095;BME280;50353;51.420;5.682;2024-01-07T02:24:29;101549.28;;;2.59;100.00
64095;BME280;50353;51.420;5.682;2024-01-07T02:26:56;101543.56;;;2.34;100.00
64095;BME280;50353;51.420;5.682;2024-01-07T02:29:21;101550.56;;;2.32;100.00
64095;BME280;50353;51.420;5.682;2024-01-07T02:31:47;101546.13;;;2.35;100.00
64095;BME280;50353;51.420;5.682;2024-01-07T02:34:12;101554.88;;;2.33;100.00
64095;BME280;50353;51.420;5.682;2024-01-07T02:36:37;101551.44;;;2.31;100.00
64095;BME280;50353;51.420;5.682;2024-01-07T02:39:03;101558.34;;;2.35;100.00
64095;BME280;50353;51.420;5.682;2024-01-07T02:41:29;101559.19;;;2.35;100.00
64095;BME280;50353;51.420;5.682;2024-01-07T02:43:56;101561.00;;;2.30;100.00
64095;BME280;50353;51.420;5.682;2024-01-07T02:46:23;101548.78;;;2.34;100.00
64095;BME280;50353;51.420;5.682;2024-01-07T02:48:49;101562.53;;;2.47;100.00
64095;BME280;50353;51.420;5.682;2024-01-07T02:51:14;101574.69;;;2.46;100.00
64095;BME280;50353;51.420;5.682;2024-01-07T02:53:40;101579.97;;;2.42;100.00
64095;BME280;50353;51.420;5.682;2024-01-07T02:56:05;101579.09;;;2.41;100.00
64095;BME280;50353;51.420;5.682;2024-01-07T02:58:31;101570.34;;;2.47;100.00
64095;BME280;50353;51.420;5.682;2024-01-07T03:00:56;101575.53;;;2.48;100.00
64095;BME280;50353;51.420;5.682;2024-01-07T03:03:21;101570.19;;;2.56;100.00
64095;BME280;50353;51.420;5.682;2024-01-07T03:05:46;101572.16;;;2.42;100.00
64095;BME280;50353;51.420;5.682;2024-01-07T03:08:12;101578.00;;;2.58;100.00
64095;BME280;50353;51.420;5.682;2024-01-07T03:10:37;101584.06;;;2.60;100.00
64095;BME280;50353;51.420;5.682;2024-01-07T03:13:03;101590.09;;;2.62;100.00
64095;BME280;50353;51.420;5.682;2024-01-07T03:15:29;101581.41;;;2.63;100.00
64095;BME280;50353;51.420;5.682;2024-01-07T03:17:54;101582.38;;;2.56;100.00
64095;BME280;50353;51.420;5.682;2024-01-07T03:20:19;101581.59;;;2.49;100.00
64095;BME280;50353;51.420;5.682;2024-01-07T03:22:45;101591.16;;;2.51;100.00
64095;BME280;50353;51.420;5.682;2024-01-07T03:25:10;101591.91;;;2.58;100.00
64095;BME280;50353;51.420;5.682;2024-01-07T03:27:35;101589.19;;;2.66;100.00
64095;BME280;50353;51.420;5.682;2024-01-07T03:30:01;101599.78;;;2.53;100.00
64095;BME280;50353;51.420;5.682;2024-01-07T03:32:26;101591.16;;;2.50;100.00
64095;BME280;50353;51.420;5.682;2024-01-07T03:34:52;101590.28;;;2.51;100.00
64095;BME280;50353;51.420;5.682;2024-01-07T03:37:18;101597.28;;;2.47;100.00
64095;BME280;50353;51.420;5.682;2024-01-07T03:39:44;101592.72;;;2.62;100.00
64095;BME280;50353;51.420;5.682;2024-01-07T03:42:09;101599.00;;;2.50;100.00
64095;BME280;50353;51.420;5.682;2024-01-07T03:44:37;101598.88;;;2.56;100.00
64095;BME280;50353;51.420;5.682;2024-01-07T03:47:04;101599.03;;;2.48;100.00
64095;BME280;50353;51.420;5.682;2024-01-07T03:49:29;101594.56;;;2.53;100.00
64095;BME280;50353;51.420;5.682;2024-01-07T03:51:54;101609.69;;;2.31;100.00
64095;BME280;50353;51.420;5.682;2024-01-07T03:54:20;101616.56;;;2.35;100.00
64095;BME280;50353;51.420;5.682;2024-01-07T03:56:45;101604.16;;;2.53;100.00
64095;BME280;50353;51.420;5.682;2024-01-07T03:59:10;101601.69;;;2.44;100.00
64095;BME280;50353;51.420;5.682;2024-01-07T04:01:35;101612.97;;;2.46;100.00
64095;BME280;50353;51.420;5.682;2024-01-07T04:04:01;101608.81;;;2.32;100.00
64095;BME280;50353;51.420;5.682;2024-01-07T04:06:26;101619.19;;;2.35;100.00
64095;BME280;50353;51.420;5.682;2024-01-07T04:08:51;101620.16;;;2.28;100.00
64095;BME280;50353;51.420;5.682;2024-01-07T04:11:17;101623.50;;;2.38;100.00
64095;BME280;50353;51.420;5.682;2024-01-07T04:13:42;101618.31;;;2.36;100.00
64095;BME280;50353;51.420;5.682;2024-01-07T04:16:16;101619.94;;;2.47;100.00
64095;BME280;50353;51.420;5.682;2024-01-07T04:18:41;101623.28;;;2.55;100.00
64095;BME280;50353;51.420;5.682;2024-01-07T04:21:09;101613.81;;;2.48;100.00
64095;BME280;50353;51.420;5.682;2024-01-07T04:23:35;101628.63;;;2.46;100.00
64095;BME280;50353;51.420;5.682;2024-01-07T04:26:00;101628.69;;;2.40;100.00
64095;BME280;50353;51.420;5.682;2024-01-07T04:28:25;101619.19;;;2.35;100.00
64095;BME280;50353;51.420;5.682;2024-01-07T04:30:50;101623.47;;;2.41;100.00
64095;BME280;50353;51.420;5.682;2024-01-07T04:33:16;101635.72;;;2.36;100.00
64095;BME280;50353;51.420;5.682;2024-01-07T04:35:41;101634.09;;;2.26;100.00
64095;BME280;50353;51.420;5.682;2024-01-07T04:38:07;101634.22;;;2.15;100.00
64095;BME280;50353;51.420;5.682;2024-01-07T04:40:33;101645.53;;;2.17;100.00
64095;BME280;50353;51.420;5.682;2024-01-07T04:42:59;101633.28;;;2.20;100.00
64095;BME280;50353;51.420;5.682;2024-01-07T04:45:25;101649.03;;;2.14;100.00
64095;BME280;50353;51.420;5.682;2024-01-07T04:47:50;101649.75;;;2.26;100.00
64095;BME280;50353;51.420;5.682;2024-01-07T04:50:15;101647.22;;;2.19;100.00
64095;BME280;50353;51.420;5.682;2024-01-07T04:52:45;101644.75;;;2.10;100.00
64095;BME280;50353;51.420;5.682;2024-01-07T04:55:10;101652.31;;;2.32;100.00
64095;BME280;50353;51.420;5.682;2024-01-07T04:57:35;101659.25;;;2.30;100.00
64095;BME280;50353;51.420;5.682;2024-01-07T05:00:02;101668.06;;;2.19;100.00
64095;BME280;50353;51.420;5.682;2024-01-07T05:02:28;101667.13;;;2.28;100.00
64095;BME280;50353;51.420;5.682;2024-01-07T05:04:54;101659.22;;;2.36;100.00
64095;BME280;50353;51.420;5.682;2024-01-07T05:07:19;101665.50;;;2.16;100.00
64095;BME280;50353;51.420;5.682;2024-01-07T05:09:44;101662.09;;;2.10;100.00
64095;BME280;50353;51.420;5.682;2024-01-07T05:12:10;101663.88;;;2.08;100.00
64095;BME280;50353;51.420;5.682;2024-01-07T05:14:35;101669.84;;;2.17;100.00
64095;BME280;50353;51.420;5.682;2024-01-07T05:17:02;101663.00;;;2.09;100.00
64095;BME280;50353;51.420;5.682;2024-01-07T05:19:28;101669.00;;;2.17;100.00
64095;BME280;50353;51.420;5.682;2024-01-07T05:21:53;101676.97;;;2.03;100.00
64095;BME280;50353;51.420;5.682;2024-01-07T05:24:19;101683.88;;;2.09;100.00
64095;BME280;50353;51.420;5.682;2024-01-07T05:26:44;101677.97;;;1.93;100.00
64095;BME280;50353;51.420;5.682;2024-01-07T05:29:10;101676.94;;;2.08;100.00
64095;BME280;50353;51.420;5.682;2024-01-07T05:31:40;101682.31;;;1.94;100.00
64095;BME280;50353;51.420;5.682;2024-01-07T05:34:05;101698.00;;;1.88;100.00
64095;BME280;50353;51.420;5.682;2024-01-07T05:36:31;101704.06;;;1.88;100.00
64095;BME280;50353;51.420;5.682;2024-01-07T05:38:56;101700.66;;;1.83;100.00
64095;BME280;50353;51.420;5.682;2024-01-07T05:41:21;101709.22;;;1.94;100.00
64095;BME280;50353;51.420;5.682;2024-01-07T05:43:47;101707.63;;;1.81;100.00
64095;BME280;50353;51.420;5.682;2024-01-07T05:46:12;101693.66;;;1.86;100.00
64095;BME280;50353;51.420;5.682;2024-01-07T05:48:45;101707.56;;;1.87;100.00
64095;BME280;50353;51.420;5.682;2024-01-07T05:51:11;101717.03;;;1.94;100.00
64095;BME280;50353;51.420;5.682;2024-01-07T05:53:37;101720.47;;;2.01;100.00
64095;BME280;50353;51.420;5.682;2024-01-07T05:56:02;101718.91;;;1.80;100.00
64095;BME280;50353;51.420;5.682;2024-01-07T05:58:28;101715.44;;;1.79;100.00
64095;BME280;50353;51.420;5.682;2024-01-07T06:00:54;101719.84;;;1.77;100.00
64095;BME280;50353;51.420;5.682;2024-01-07T06:03:19;101718.06;;;1.78;100.00
64095;BME280;50353;51.420;5.682;2024-01-07T06:05:44;101725.97;;;1.68;100.00
64095;BME280;50353;51.420;5.682;2024-01-07T06:08:10;101732.94;;;1.65;100.00
64095;BME280;50353;51.420;5.682;2024-01-07T06:10:35;101735.31;;;1.93;100.00
64095;BME280;50353;51.420;5.682;2024-01-07T06:13:01;101740.81;;;1.60;100.00
64095;BME280;50353;51.420;5.682;2024-01-07T06:15:28;101745.88;;;1.79;100.00
64095;BME280;50353;51.420;5.682;2024-01-07T06:17:53;101756.41;;;1.68;100.00
64095;BME280;50353;51.420;5.682;2024-01-07T06:20:19;101748.34;;;1.93;100.00
64095;BME280;50353;51.420;5.682;2024-01-07T06:22:44;101742.47;;;1.67;100.00
64095;BME280;50353;51.420;5.682;2024-01-07T06:25:09;101754.50;;;1.87;100.00
64095;BME280;50353;51.420;5.682;2024-01-07T06:27:35;101762.34;;;1.82;100.00
64095;BME280;50353;51.420;5.682;2024-01-07T06:30:01;101761.44;;;1.90;100.00
64095;BME280;50353;51.420;5.682;2024-01-07T06:32:26;101767.50;;;1.89;100.00
64095;BME280;50353;51.420;5.682;2024-01-07T06:34:51;101756.41;;;1.63;100.00
64095;BME280;50353;51.420;5.682;2024-01-07T06:37:17;101765.94;;;1.71;100.00
64095;BME280;50353;51.420;5.682;2024-01-07T06:39:42;101777.16;;;1.76;100.00
64095;BME280;50353;51.420;5.682;2024-01-07T06:42:08;101781.66;;;1.60;100.00
64095;BME280;50353;51.420;5.682;2024-01-07T06:44:33;101787.75;;;1.57;100.00
64095;BME280;50353;51.420;5.682;2024-01-07T06:46:58;101799.91;;;1.55;100.00
64095;BME280;50353;51.420;5.682;2024-01-07T06:49:24;101799.91;;;1.60;100.00
64095;BME280;50353;51.420;5.682;2024-01-07T06:51:49;101804.03;;;1.84;100.00
64095;BME280;50353;51.420;5.682;2024-01-07T06:54:14;101801.56;;;1.68;100.00
64095;BME280;50353;51.420;5.682;2024-01-07T06:56:40;101801.41;;;1.84;100.00
64095;BME280;50353;51.420;5.682;2024-01-07T06:59:05;101798.03;;;1.74;100.00
64095;BME280;50353;51.420;5.682;2024-01-07T07:01:32;101815.41;;;1.77;100.00
64095;BME280;50353;51.420;5.682;2024-01-07T07:03:57;101797.19;;;1.69;100.00
64095;BME280;50353;51.420;5.682;2024-01-07T07:06:23;101821.56;;;1.68;100.00
64095;BME280;50353;51.420;5.682;2024-01-07T07:08:49;101826.69;;;1.74;100.00
64095;BME280;50353;51.420;5.682;2024-01-07T07:11:15;101810.28;;;1.64;100.00
64095;BME280;50353;51.420;5.682;2024-01-07T07:13:41;101824.13;;;1.71;100.00
64095;BME280;50353;51.420;5.682;2024-01-07T07:16:06;101834.50;;;1.76;100.00
64095;BME280;50353;51.420;5.682;2024-01-07T07:18:32;101838.13;;;1.56;100.00
64095;BME280;50353;51.420;5.682;2024-01-07T07:20:58;101838.00;;;1.76;100.00
64095;BME280;50353;51.420;5.682;2024-01-07T07:23:23;101841.56;;;1.61;100.00
64095;BME280;50353;51.420;5.682;2024-01-07T07:25:49;101854.56;;;1.66;100.00
64095;BME280;50353;51.420;5.682;2024-01-07T07:28:14;101853.81;;;1.51;100.00
64095;BME280;50353;51.420;5.682;2024-01-07T07:30:39;101857.25;;;1.58;100.00
64095;BME280;50353;51.420;5.682;2024-01-07T07:33:05;101866.00;;;1.43;100.00
64095;BME280;50353;51.420;5.682;2024-01-07T07:35:30;101867.72;;;1.49;100.00
64095;BME280;50353;51.420;5.682;2024-01-07T07:37:55;101860.81;;;1.37;100.00
64095;BME280;50353;51.420;5.682;2024-01-07T07:40:21;101872.00;;;1.56;100.00
64095;BME280;50353;51.420;5.682;2024-01-07T07:42:46;101876.31;;;1.66;100.00
64095;BME280;50353;51.420;5.682;2024-01-07T07:45:11;101884.09;;;1.69;100.00
64095;BME280;50353;51.420;5.682;2024-01-07T07:47:37;101884.09;;;1.65;100.00
64095;BME280;50353;51.420;5.682;2024-01-07T07:50:03;101882.44;;;1.55;100.00
64095;BME280;50353;51.420;5.682;2024-01-07T07:52:29;101887.59;;;1.61;100.00
64095;BME280;50353;51.420;5.682;2024-01-07T07:54:54;101882.38;;;1.65;100.00
64095;BME280;50353;51.420;5.682;2024-01-07T07:57:20;101899.78;;;1.59;100.00
64095;BME280;50353;51.420;5.682;2024-01-07T07:59:50;101904.13;;;1.61;100.00
64095;BME280;50353;51.420;5.682;2024-01-07T08:02:16;101905.06;;;1.48;100.00
64095;BME280;50353;51.420;5.682;2024-01-07T08:04:42;101908.56;;;1.41;100.00
64095;BME280;50353;51.420;5.682;2024-01-07T08:07:08;101919.84;;;1.43;100.00
64095;BME280;50353;51.420;5.682;2024-01-07T08:09:34;101908.56;;;1.44;100.00
64095;BME280;50353;51.420;5.682;2024-01-07T08:12:02;101919.88;;;1.40;100.00
64095;BME280;50353;51.420;5.682;2024-01-07T08:14:27;101919.03;;;1.25;100.00
64095;BME280;50353;51.420;5.682;2024-01-07T08:16:54;101914.59;;;1.46;100.00
64095;BME280;50353;51.420;5.682;2024-01-07T08:19:19;101924.94;;;1.64;100.00
64095;BME280;50353;51.420;5.682;2024-01-07T08:21:45;101934.66;;;1.31;100.00
64095;BME280;50353;51.420;5.682;2024-01-07T08:24:11;101926.91;;;1.13;100.00
64095;BME280;50353;51.420;5.682;2024-01-07T08:26:36;101938.19;;;1.16;100.00
64095;BME280;50353;51.420;5.682;2024-01-07T08:29:01;101934.66;;;1.25;100.00
64095;BME280;50353;51.420;5.682;2024-01-07T08:31:27;101937.25;;;1.33;100.00
64095;BME280;50353;51.420;5.682;2024-01-07T08:33:52;101945.03;;;1.41;100.00
64095;BME280;50353;51.420;5.682;2024-01-07T08:36:17;101947.69;;;1.25;100.00
64095;BME280;50353;51.420;5.682;2024-01-07T08:38:43;101953.78;;;1.24;100.00
64095;BME280;50353;51.420;5.682;2024-01-07T08:41:09;101956.47;;;1.03;100.00
64095;BME280;50353;51.420;5.682;2024-01-07T08:43:34;101963.38;;;1.10;100.00
64095;BME280;50353;51.420;5.682;2024-01-07T08:46:00;101955.53;;;1.21;100.00
64095;BME280;50353;51.420;5.682;2024-01-07T08:48:25;101965.97;;;1.16;100.00
64095;BME280;50353;51.420;5.682;2024-01-07T08:50:51;101971.16;;;1.14;100.00
64095;BME280;50353;51.420;5.682;2024-01-07T08:53:17;101972.88;;;1.28;100.00
64095;BME280;50353;51.420;5.682;2024-01-07T08:55:42;101976.34;;;1.28;100.00
64095;BME280;50353;51.420;5.682;2024-01-07T08:58:07;101975.50;;;1.22;100.00
64095;BME280;50353;51.420;5.682;2024-01-07T09:00:33;101985.91;;;1.17;100.00
64095;BME280;50353;51.420;5.682;2024-01-07T09:02:58;101974.69;;;1.01;100.00
64095;BME280;50353;51.420;5.682;2024-01-07T09:05:23;101991.16;;;1.12;100.00
64095;BME280;50353;51.420;5.682;2024-01-07T09:07:52;101995.50;;;1.04;100.00
64095;BME280;50353;51.420;5.682;2024-01-07T09:10:17;101979.84;;;1.15;100.00
64095;BME280;50353;51.420;5.682;2024-01-07T09:12:44;101996.38;;;1.01;100.00
64095;BME280;50353;51.420;5.682;2024-01-07T09:15:09;101989.44;;;0.99;100.00
64095;BME280;50353;51.420;5.682;2024-01-07T09:17:36;101986.78;;;1.28;100.00
64095;BME280;50353;51.420;5.682;2024-01-07T09:20:05;101998.06;;;1.27;100.00
64095;BME280;50353;51.420;5.682;2024-01-07T09:22:33;101999.81;;;1.28;100.00
64095;BME280;50353;51.420;5.682;2024-01-07T09:24:59;102007.63;;;1.14;100.00
64095;BME280;50353;51.420;5.682;2024-01-07T09:27:24;102016.28;;;1.29;100.00
64095;BME280;50353;51.420;5.682;2024-01-07T09:29:50;102013.69;;;1.21;100.00
64095;BME280;50353;51.420;5.682;2024-01-07T09:32:15;102016.31;;;1.16;100.00
64095;BME280;50353;51.420;5.682;2024-01-07T09:34:40;102021.50;;;1.24;100.00
64095;BME280;50353;51.420;5.682;2024-01-07T09:37:05;102032.81;;;1.22;100.00
64095;BME280;50353;51.420;5.682;2024-01-07T09:39:31;102033.66;;;1.31;100.00
64095;BME280;50353;51.420;5.682;2024-01-07T09:41:57;102025.88;;;0.99;100.00
64095;BME280;50353;51.420;5.682;2024-01-07T09:44:22;102035.44;;;1.09;100.00
64095;BME280;50353;51.420;5.682;2024-01-07T09:46:48;102044.97;;;1.24;100.00
64095;BME280;50353;51.420;5.682;2024-01-07T09:49:16;102039.75;;;0.96;100.00
64095;BME280;50353;51.420;5.682;2024-01-07T09:51:45;102045.81;;;1.25;100.00
64095;BME280;50353;51.420;5.682;2024-01-07T09:54:11;102036.28;;;1.07;100.00
64095;BME280;50353;51.420;5.682;2024-01-07T09:56:43;102038.88;;;1.10;100.00
64095;BME280;50353;51.420;5.682;2024-01-07T09:59:13;102054.53;;;1.08;100.00
64095;BME280;50353;51.420;5.682;2024-01-07T10:01:39;102057.09;;;1.22;100.00
64095;BME280;50353;51.420;5.682;2024-01-07T10:04:05;102049.34;;;0.93;100.00
64095;BME280;50353;51.420;5.682;2024-01-07T10:06:31;102058.00;;;1.04;100.00
64095;BME280;50353;51.420;5.682;2024-01-07T10:08:58;102049.28;;;1.04;100.00
64095;BME280;50353;51.420;5.682;2024-01-07T10:11:24;102061.44;;;1.22;100.00
64095;BME280;50353;51.420;5.682;2024-01-07T10:13:49;102053.63;;;1.15;100.00
64095;BME280;50353;51.420;5.682;2024-01-07T10:16:17;102063.16;;;1.30;100.00
64095;BME280;50353;51.420;5.682;2024-01-07T10:18:42;102065.78;;;1.24;100.00
64095;BME280;50353;51.420;5.682;2024-01-07T10:21:09;102065.75;;;1.38;100.00
64095;BME280;50353;51.420;5.682;2024-01-07T10:23:34;102069.25;;;1.32;100.00
64095;BME280;50353;51.420;5.682;2024-01-07T10:25:59;102065.75;;;1.40;100.00
64095;BME280;50353;51.420;5.682;2024-01-07T10:28:27;102072.72;;;1.31;100.00
64095;BME280;50353;51.420;5.682;2024-01-07T10:30:52;102072.75;;;1.16;100.00
64095;BME280;50353;51.420;5.682;2024-01-07T10:33:18;102082.28;;;1.32;100.00
64095;BME280;50353;51.420;5.682;2024-01-07T10:36:01;102071.88;;;1.09;100.00
64095;BME280;50353;51.420;5.682;2024-01-07T10:38:29;102080.56;;;1.10;100.00
64095;BME280;50353;51.420;5.682;2024-01-07T10:40:55;102081.41;;;1.16;100.00
64095;BME280;50353;51.420;5.682;2024-01-07T10:43:26;102074.50;;;0.88;100.00
64095;BME280;50353;51.420;5.682;2024-01-07T10:45:55;102077.97;;;1.16;100.00
64095;BME280;50353;51.420;5.682;2024-01-07T10:48:21;102077.06;;;1.14;100.00
64095;BME280;50353;51.420;5.682;2024-01-07T10:50:47;102085.72;;;1.27;100.00
64095;BME280;50353;51.420;5.682;2024-01-07T10:53:18;102088.38;;;1.16;100.00
64095;BME280;50353;51.420;5.682;2024-01-07T10:55:54;102083.16;;;1.04;100.00
64095;BME280;50353;51.420;5.682;2024-01-07T10:58:20;102067.53;;;1.04;100.00
64095;BME280;50353;51.420;5.682;2024-01-07T11:00:47;102088.38;;;1.16;100.00
64095;BME280;50353;51.420;5.682;2024-01-07T11:03:55;102088.34;;;1.28;100.00
64095;BME280;50353;51.420;5.682;2024-01-07T11:06:33;102090.09;;;1.18;100.00
64095;BME280;50353;51.420;5.682;2024-01-07T11:09:03;102088.34;;;1.28;100.00
64095;BME280;50353;51.420;5.682;2024-01-07T11:11:40;102092.72;;;1.00;100.00
64095;BME280;50353;51.420;5.682;2024-01-07T11:14:39;102098.78;;;1.02;100.00
64095;BME280;50353;51.420;5.682;2024-01-07T11:17:07;102104.00;;;1.16;100.00
64095;BME280;50353;51.420;5.682;2024-01-07T11:19:35;102091.84;;;1.12;100.00
64095;BME280;50353;51.420;5.682;2024-01-07T11:24:49;102094.41;;;1.47;100.00
64095;BME280;50353;51.420;5.682;2024-01-07T11:27:15;102103.09;;;1.17;100.00
64095;BME280;50353;51.420;5.682;2024-01-07T11:29:41;102093.56;;;1.28;100.00
64095;BME280;50353;51.420;5.682;2024-01-07T11:32:06;102106.59;;;1.22;100.00
64095;BME280;50353;51.420;5.682;2024-01-07T11:34:41;102105.72;;;1.17;100.00
64095;BME280;50353;51.420;5.682;2024-01-07T11:37:14;102100.50;;;1.28;100.00
64095;BME280;50353;51.420;5.682;2024-01-07T11:39:44;102097.88;;;1.29;100.00
64095;BME280;50353;51.420;5.682;2024-01-07T11:42:10;102101.34;;;1.27;100.00
64095;BME280;50353;51.420;5.682;2024-01-07T11:44:37;102098.78;;;1.30;100.00
64095;BME280;50353;51.420;5.682;2024-01-07T11:47:03;102103.97;;;1.25;100.00
64095;BME280;50353;51.420;5.682;2024-01-07T11:49:30;102104.84;;;1.23;100.00
64095;BME280;50353;51.420;5.682;2024-01-07T11:51:55;102106.59;;;1.08;100.00
64095;BME280;50353;51.420;5.682;2024-01-07T11:54:21;102095.31;;;1.05;100.00
64095;BME280;50353;51.420;5.682;2024-01-07T11:56:46;102081.44;;;0.79;100.00
64095;BME280;50353;51.420;5.682;2024-01-07T11:59:12;102111.78;;;1.21;100.00
64095;BME280;50353;51.420;5.682;2024-01-07T12:01:37;102105.72;;;1.22;100.00
64095;BME280;50353;51.420;5.682;2024-01-07T12:04:03;102093.56;;;1.04;100.00
64095;BME280;50353;51.420;5.682;2024-01-07T12:06:29;102107.47;;;1.12;100.00
64095;BME280;50353;51.420;5.682;2024-01-07T12:08:54;102101.38;;;1.04;100.00
64095;BME280;50353;51.420;5.682;2024-01-07T12:11:20;102096.16;;;1.02;100.00
64095;BME280;50353;51.420;5.682;2024-01-07T12:13:46;102108.31;;;1.03;100.00
64095;BME280;50353;51.420;5.682;2024-01-07T12:16:11;102116.13;;;1.15;100.00
64095;BME280;50353;51.420;5.682;2024-01-07T12:18:40;102116.13;;;1.15;100.00
64095;BME280;50353;51.420;5.682;2024-01-07T12:21:05;102117.88;;;1.21;100.00
64095;BME280;50353;51.420;5.682;2024-01-07T12:23:35;102104.84;;;1.16;100.00
64095;BME280;50353;51.420;5.682;2024-01-07T12:26:07;102118.72;;;1.18;100.00
64095;BME280;50353;51.420;5.682;2024-01-07T12:28:34;102116.16;;;1.22;100.00
64095;BME280;50353;51.420;5.682;2024-01-07T12:30:59;102119.63;;;1.19;100.00
64095;BME280;50353;51.420;5.682;2024-01-07T12:33:27;102126.56;;;1.34;100.00
64095;BME280;50353;51.420;5.682;2024-01-07T12:35:54;102122.22;;;1.22;100.00
64095;BME280;50353;51.420;5.682;2024-01-07T12:38:26;102123.94;;;1.29;100.00
64095;BME280;50353;51.420;5.682;2024-01-07T12:40:53;102120.47;;;1.30;100.00
64095;BME280;50353;51.420;5.682;2024-01-07T12:43:18;102120.50;;;0.89;100.00
64095;BME280;50353;51.420;5.682;2024-01-07T12:45:44;102142.19;;;1.15;100.00
64095;BME280;50353;51.420;5.682;2024-01-07T12:48:09;102123.06;;;0.72;100.00